createdAt,value
2018-06-12T00:02:52.779Z,11.20
2018-06-12T00:08:40.433Z,14.00
2018-06-12T00:11:34.208Z,13.80
2018-06-12T00:14:17.539Z,18.12
2018-06-12T00:16:56.650Z,15.37
2018-06-12T00:19:32.627Z,15.00
2018-06-12T00:22:13.398Z,13.50
2018-06-12T00:25:22.636Z,14.20
2018-06-12T00:28:16.465Z,10.17
2018-06-12T00:31:16.101Z,9.77
2018-06-12T00:33:53.803Z,12.18
2018-06-12T00:36:45.024Z,13.50
2018-06-12T00:39:26.095Z,12.50
2018-06-12T00:41:57.469Z,10.63
2018-06-12T00:44:31.637Z,12.57
2018-06-12T00:47:06.468Z,11.57
2018-06-12T00:49:36.911Z,10.90
2018-06-12T00:52:16.998Z,9.57
2018-06-12T00:54:52.192Z,11.40
2018-06-12T00:57:28.767Z,12.20
2018-06-12T01:00:06.202Z,10.33
2018-06-12T01:02:37.933Z,10.63
2018-06-12T01:05:17.878Z,14.80
2018-06-12T01:07:53.085Z,9.83
2018-06-12T01:10:26.409Z,11.20
2018-06-12T01:12:58.793Z,14.63
2018-06-12T01:15:43.981Z,11.47
2018-06-12T01:18:20.150Z,12.50
2018-06-12T01:20:56.997Z,10.63
2018-06-12T01:23:31.622Z,12.83
2018-06-12T01:26:08.411Z,11.70
2018-06-12T01:31:25.786Z,11.00
2018-06-12T01:34:05.529Z,12.10
2018-06-12T01:36:39.210Z,13.83
2018-06-12T01:39:18.059Z,12.47
2018-06-12T01:42:00.980Z,14.97
2018-06-12T01:44:40.111Z,13.10
2018-06-12T01:47:14.627Z,11.30
2018-06-12T01:49:46.624Z,11.77
2018-06-12T01:52:17.860Z,12.70
2018-06-12T01:54:54.626Z,11.73
2018-06-12T01:57:32.209Z,15.00
2018-06-12T02:00:04.418Z,14.73
2018-06-12T02:02:38.094Z,13.07
2018-06-12T02:05:10.353Z,11.67
2018-06-12T02:07:53.512Z,14.07
2018-06-12T02:10:33.714Z,12.20
2018-06-12T02:13:08.730Z,11.80
2018-06-12T02:15:40.815Z,23.60
2018-06-12T02:18:16.647Z,16.63
2018-06-12T02:20:51.911Z,12.13
2018-06-12T02:23:38.600Z,11.17
2018-06-12T02:26:19.121Z,11.87
2018-06-12T02:28:56.804Z,14.07
2018-06-12T02:31:31.431Z,15.57
2018-06-12T02:34:06.982Z,13.27
2018-06-12T02:36:46.334Z,12.53
2018-06-12T02:39:25.218Z,13.63
2018-06-12T02:41:58.368Z,11.93
2018-06-12T02:44:36.438Z,11.77
2018-06-12T02:47:10.018Z,12.70
2018-06-12T02:49:45.298Z,12.20
2018-06-12T02:52:26.497Z,11.83
2018-06-12T02:55:03.138Z,17.80
2018-06-12T02:57:35.684Z,14.90
2018-06-12T03:00:09.684Z,18.20
2018-06-12T03:02:46.686Z,14.73
2018-06-12T03:05:19.979Z,13.73
2018-06-12T03:08:03.043Z,13.53
2018-06-12T03:10:56.390Z,13.63
2018-06-12T03:13:36.872Z,17.20
2018-06-12T03:16:22.848Z,14.03
2018-06-12T03:21:54.201Z,15.50
2018-06-12T03:24:35.032Z,14.13
2018-06-12T03:27:34.926Z,13.73
2018-06-12T03:30:17.625Z,18.50
2018-06-12T03:33:00.620Z,19.93
2018-06-12T03:35:57.160Z,14.83
2018-06-12T03:38:47.432Z,15.70
2018-06-12T03:41:28.819Z,19.40
2018-06-12T03:44:10.632Z,19.23
2018-06-12T03:49:34.883Z,19.10
2018-06-12T03:52:13.940Z,16.77
2018-06-12T03:54:51.610Z,16.47
2018-06-12T04:00:42.495Z,18.03
2018-06-12T04:03:26.607Z,22.03
2018-06-12T04:06:15.464Z,16.07
2018-06-12T04:08:57.974Z,18.13
2018-06-12T04:11:38.129Z,16.70
2018-06-12T04:14:17.861Z,17.50
2018-06-12T04:17:04.486Z,17.73
2018-06-12T04:19:43.965Z,16.90
2018-06-12T04:22:24.883Z,23.70
2018-06-12T04:27:44.799Z,17.07
2018-06-12T04:30:26.259Z,16.70
2018-06-12T04:33:08.144Z,23.23
2018-06-12T04:35:43.796Z,18.77
2018-06-12T04:38:20.289Z,18.97
2018-06-12T04:41:01.584Z,19.43
2018-06-12T04:43:32.004Z,17.90
2018-06-12T04:46:15.853Z,20.93
2018-06-12T04:48:49.213Z,16.27
2018-06-12T04:51:22.201Z,18.90
2018-06-12T04:54:03.515Z,20.00
2018-06-12T04:59:58.949Z,19.03
2018-06-12T05:06:24.330Z,20.10
2018-06-12T05:08:58.443Z,20.40
2018-06-12T05:11:34.457Z,20.27
2018-06-12T05:16:45.455Z,16.73
2018-06-12T05:22:28.957Z,18.90
2018-06-12T05:25:17.870Z,25.67
2018-06-12T05:28:07.489Z,19.20
2018-06-12T05:30:52.867Z,17.37
2018-06-12T05:33:36.078Z,17.17
2018-06-12T05:36:39.140Z,18.67
2018-06-12T05:42:20.592Z,17.27
2018-06-12T06:27:32.521Z,14.60
2018-06-12T06:30:06.652Z,16.00
2018-06-12T06:32:41.058Z,14.77
2018-06-12T06:35:15.391Z,17.40
2018-06-12T06:37:48.184Z,19.80
2018-06-12T06:40:28.339Z,15.50
2018-06-12T06:43:02.018Z,20.83
2018-06-12T06:45:44.855Z,14.00
2018-06-12T06:48:20.193Z,16.97
2018-06-12T06:50:54.517Z,14.30
2018-06-12T06:53:30.361Z,17.00
2018-06-12T06:56:03.532Z,20.27
2018-06-12T06:58:39.985Z,18.43
2018-06-12T07:01:22.255Z,16.23
2018-06-12T07:04:00.465Z,14.50
2018-06-12T07:06:34.560Z,18.37
2018-06-12T07:09:22.109Z,14.27
2018-06-12T07:12:02.367Z,13.77
2018-06-12T07:14:48.360Z,16.30
2018-06-12T07:17:27.577Z,13.77
2018-06-12T07:20:05.382Z,12.23
2018-06-12T07:22:41.314Z,10.87
2018-06-12T07:25:18.091Z,14.83
2018-06-12T07:27:55.707Z,13.60
2018-06-12T07:30:30.175Z,12.40
2018-06-12T07:33:07.313Z,15.37
2018-06-12T07:38:18.022Z,11.23
2018-06-12T07:40:50.703Z,9.03
2018-06-12T07:43:33.744Z,13.80
2018-06-12T07:46:01.712Z,10.57
2018-06-12T07:48:29.523Z,10.13
2018-06-12T07:50:57.294Z,9.37
2018-06-12T07:53:25.077Z,9.57
2018-06-12T07:55:52.866Z,12.60
2018-06-12T07:58:20.663Z,8.87
2018-06-12T08:00:48.980Z,14.60
2018-06-12T08:03:16.834Z,10.67
2018-06-12T08:05:47.114Z,10.33
2018-06-12T08:08:23.472Z,11.13
2018-06-12T08:10:51.880Z,10.60
2018-06-12T08:13:19.544Z,14.10
2018-06-12T08:15:47.221Z,10.07
2018-06-12T08:18:15.065Z,10.70
2018-06-12T08:20:42.845Z,9.03
2018-06-12T08:23:10.643Z,9.30
2018-06-12T08:25:38.404Z,11.47
2018-06-12T08:28:06.141Z,10.63
2018-06-12T08:30:33.865Z,9.97
2018-06-12T08:33:01.465Z,11.20
2018-06-12T08:35:30.143Z,8.00
2018-06-12T08:38:05.409Z,9.80
2018-06-12T08:40:33.182Z,9.23
2018-06-12T08:43:01.012Z,12.13
2018-06-12T08:45:28.671Z,11.23
2018-06-12T08:47:56.480Z,10.67
2018-06-12T08:50:24.372Z,9.57
2018-06-12T08:52:52.203Z,12.40
2018-06-12T08:55:20.045Z,10.13
2018-06-12T08:57:47.970Z,15.17
2018-06-12T09:00:15.796Z,13.17
2018-06-12T09:02:43.495Z,14.53
2018-06-12T09:05:11.311Z,12.33
2018-06-12T09:07:38.960Z,13.90
2018-06-12T09:10:06.881Z,12.70
2018-06-12T09:12:34.696Z,14.83
2018-06-12T09:15:02.431Z,12.63
2018-06-12T09:17:30.203Z,14.87
2018-06-12T09:19:58.021Z,13.40
2018-06-12T09:22:26.653Z,11.87
2018-06-12T09:24:54.417Z,12.57
2018-06-12T09:27:22.253Z,13.40
2018-06-12T09:29:50.077Z,16.73
2018-06-12T09:32:17.828Z,12.90
2018-06-12T09:34:45.621Z,10.90
2018-06-12T09:37:13.470Z,14.30
2018-06-12T09:39:41.327Z,15.20
2018-06-12T09:42:09.037Z,12.17
2018-06-12T09:44:36.900Z,9.07
2018-06-12T09:47:04.672Z,11.77
2018-06-12T09:49:32.665Z,9.83
2018-06-12T09:52:00.525Z,9.23
2018-06-12T09:54:28.330Z,11.83
2018-06-12T09:56:55.995Z,10.80
2018-06-12T09:59:23.655Z,12.53
2018-06-12T10:01:51.299Z,10.07
2018-06-12T10:04:19.209Z,9.00
2018-06-12T10:06:47.047Z,10.63
2018-06-12T10:09:14.764Z,8.77
2018-06-12T10:11:42.590Z,11.07
2018-06-12T10:14:10.442Z,8.40
2018-06-12T10:16:38.284Z,11.07
2018-06-12T10:19:06.149Z,8.30
2018-06-12T10:21:33.885Z,9.37
2018-06-12T10:24:01.658Z,8.70
2018-06-12T10:26:29.389Z,12.67
2018-06-12T10:28:57.169Z,10.13
2018-06-12T10:31:24.925Z,9.10
2018-06-12T10:33:52.694Z,9.33
2018-06-12T10:36:20.554Z,10.90
2018-06-12T10:38:48.300Z,11.20
2018-06-12T10:41:15.958Z,8.97
2018-06-12T10:43:43.776Z,9.73
2018-06-12T10:46:11.570Z,10.10
2018-06-12T10:48:39.225Z,11.73
2018-06-12T10:51:07.019Z,8.80
2018-06-12T10:53:34.687Z,14.23
2018-06-12T10:56:02.448Z,8.10
2018-06-12T10:58:30.227Z,8.80
2018-06-12T11:00:57.900Z,11.93
2018-06-12T11:03:25.777Z,12.80
2018-06-12T11:05:53.582Z,11.83
2018-06-12T11:08:21.357Z,9.60
2018-06-12T11:10:49.214Z,11.03
2018-06-12T11:13:16.947Z,10.27
2018-06-12T11:15:44.668Z,14.43
2018-06-12T11:18:12.415Z,12.23
2018-06-12T11:20:40.241Z,15.87
2018-06-12T11:23:08.012Z,11.77
2018-06-12T11:25:35.793Z,12.50
2018-06-12T11:28:03.536Z,10.60
2018-06-12T11:30:31.295Z,9.97
2018-06-12T11:32:59.059Z,10.43
2018-06-12T11:35:26.847Z,10.47
2018-06-12T11:37:54.623Z,13.30
2018-06-12T11:40:22.412Z,15.10
2018-06-12T11:42:50.158Z,16.10
2018-06-12T11:45:17.915Z,14.20
2018-06-12T11:47:45.741Z,12.23
2018-06-12T11:50:13.591Z,13.03
2018-06-12T11:52:41.395Z,10.90
2018-06-12T11:55:09.136Z,11.03
2018-06-12T11:57:36.896Z,11.13
2018-06-12T12:00:04.960Z,11.30
2018-06-12T12:02:32.566Z,11.30
2018-06-12T12:05:00.316Z,16.53
2018-06-12T12:07:28.032Z,12.30
2018-06-12T12:09:55.751Z,10.57
2018-06-12T12:12:23.488Z,15.07
2018-06-12T12:14:51.219Z,13.47
2018-06-12T12:17:18.950Z,20.37
2018-06-12T12:19:46.687Z,13.17
2018-06-12T12:22:14.420Z,10.87
2018-06-12T12:24:42.016Z,10.73
2018-06-12T12:27:09.807Z,11.10
2018-06-12T12:29:37.544Z,12.20
2018-06-12T12:32:05.308Z,12.70
2018-06-12T12:34:33.083Z,11.87
2018-06-12T12:37:00.801Z,11.07
2018-06-12T12:39:28.442Z,13.30
2018-06-12T12:41:56.161Z,23.37
2018-06-12T12:44:23.888Z,14.93
2018-06-12T12:46:51.624Z,11.63
2018-06-12T12:49:19.763Z,13.57
2018-06-12T12:51:47.491Z,12.90
2018-06-12T12:54:15.095Z,14.53
2018-06-12T12:56:42.888Z,18.03
2018-06-12T12:59:10.624Z,12.73
2018-06-12T13:01:38.373Z,13.23
2018-06-12T13:04:06.017Z,12.90
2018-06-12T13:06:33.691Z,17.87
2018-06-12T13:09:01.434Z,16.63
2018-06-12T13:11:29.283Z,14.73
2018-06-12T13:13:57.100Z,19.40
2018-06-12T13:16:24.847Z,18.10
2018-06-12T13:18:52.660Z,16.00
2018-06-12T13:21:20.453Z,15.57
2018-06-12T13:23:48.303Z,14.53
2018-06-12T13:26:16.083Z,13.70
2018-06-12T13:28:44.127Z,14.10
2018-06-12T13:31:11.860Z,14.73
2018-06-12T13:33:39.600Z,14.40
2018-06-12T13:36:07.260Z,15.13
2018-06-12T13:38:34.872Z,15.30
2018-06-12T13:41:02.644Z,17.10
2018-06-12T13:43:30.410Z,17.70
2018-06-12T13:45:58.139Z,15.77
2018-06-12T13:48:25.853Z,18.40
2018-06-12T13:50:53.608Z,18.10
2018-06-12T13:53:21.376Z,19.70
2018-06-12T13:55:49.112Z,21.30
2018-06-12T13:58:16.827Z,23.33
2018-06-12T14:00:44.544Z,27.30
2018-06-12T14:03:12.359Z,21.10
2018-06-12T14:05:40.118Z,23.40
2018-06-12T14:08:07.841Z,27.90
2018-06-12T14:10:35.590Z,22.40
2018-06-12T14:13:03.375Z,19.47
2018-06-12T14:15:31.084Z,16.67
2018-06-12T14:17:58.837Z,20.63
2018-06-12T14:20:26.560Z,16.57
2018-06-12T14:22:54.298Z,23.27
2018-06-12T14:25:22.040Z,18.93
2018-06-12T14:27:49.655Z,18.67
2018-06-12T14:30:17.442Z,16.30
2018-06-12T14:32:45.144Z,18.97
2018-06-12T14:35:12.719Z,16.97
2018-06-12T14:37:40.456Z,17.87
2018-06-12T14:40:08.044Z,18.87
2018-06-12T14:42:35.792Z,20.70
2018-06-12T14:45:03.474Z,17.37
2018-06-12T14:47:31.221Z,18.80
2018-06-12T14:49:58.976Z,21.13
2018-06-12T14:52:26.595Z,20.77
2018-06-12T14:54:54.376Z,21.43
2018-06-12T14:57:22.149Z,22.83
2018-06-12T14:59:49.881Z,20.83
2018-06-12T15:02:17.618Z,20.73
2018-06-12T15:04:45.412Z,19.03
2018-06-12T15:07:13.172Z,17.50
2018-06-12T15:09:41.009Z,22.20
2018-06-12T15:12:08.784Z,19.80
2018-06-12T15:14:36.532Z,18.03
2018-06-12T15:17:04.341Z,18.90
2018-06-12T15:19:32.099Z,20.73
2018-06-12T15:21:59.830Z,21.80
2018-06-12T15:24:27.608Z,23.63
2018-06-12T15:26:55.329Z,23.00
2018-06-12T15:29:23.067Z,21.63
2018-06-12T15:31:50.818Z,19.23
2018-06-12T15:34:18.538Z,20.53
2018-06-12T15:36:46.299Z,21.13
2018-06-12T15:39:14.042Z,20.70
2018-06-12T15:41:41.920Z,22.43
2018-06-12T15:44:09.662Z,23.97
2018-06-12T15:46:37.462Z,24.93
2018-06-12T15:49:05.246Z,19.90
2018-06-12T15:51:33.066Z,26.83
2018-06-12T15:54:00.852Z,19.23
2018-06-12T15:56:28.636Z,19.60
2018-06-12T15:58:56.412Z,25.10
2018-06-12T16:01:24.207Z,22.33
2018-06-12T16:03:52.189Z,17.53
2018-06-12T16:06:19.981Z,20.07
2018-06-12T16:08:47.729Z,21.30
2018-06-12T16:11:15.487Z,22.63
2018-06-12T16:13:43.332Z,20.80
2018-06-12T16:16:11.076Z,19.27
2018-06-12T16:18:38.816Z,19.77
2018-06-12T16:21:06.702Z,24.60
2018-06-12T16:23:34.456Z,18.93
2018-06-12T16:26:02.304Z,18.90
2018-06-12T16:28:30.111Z,22.53
2018-06-12T16:30:57.856Z,20.30
2018-06-12T16:33:25.559Z,19.50
2018-06-12T16:35:53.324Z,17.73
2018-06-12T16:38:21.114Z,21.63
2018-06-12T16:40:48.900Z,23.83
2018-06-12T16:43:16.724Z,30.50
2018-06-12T16:45:44.456Z,22.23
2018-06-12T16:48:12.276Z,25.23
2018-06-12T16:50:40.031Z,25.77
2018-06-12T16:53:07.832Z,25.57
2018-06-12T16:55:35.605Z,26.50
2018-06-12T16:58:03.512Z,22.63
2018-06-12T17:00:31.336Z,25.37
2018-06-12T17:02:59.150Z,22.60
2018-06-12T17:05:26.968Z,28.13
2018-06-12T17:07:54.712Z,28.20
2018-06-12T17:10:22.525Z,23.27
2018-06-12T17:12:50.298Z,26.03
2018-06-12T17:15:18.096Z,26.60
2018-06-12T17:17:45.879Z,32.47
2018-06-12T17:20:13.549Z,26.70
2018-06-12T17:22:41.305Z,25.63
2018-06-12T17:25:08.931Z,27.43
2018-06-12T17:27:36.672Z,28.43
2018-06-12T17:30:05.216Z,24.80
2018-06-12T17:32:33.011Z,22.30
2018-06-12T17:35:00.779Z,21.93
2018-06-12T17:37:28.589Z,22.13
2018-06-12T17:39:56.388Z,25.57
2018-06-12T17:42:24.175Z,23.03
2018-06-12T17:44:51.991Z,21.10
2018-06-12T17:47:19.795Z,20.57
2018-06-12T17:49:47.560Z,18.40
2018-06-12T17:52:15.351Z,19.07
2018-06-12T17:54:43.104Z,19.40
2018-06-12T17:57:10.917Z,22.87
2018-06-12T17:59:38.563Z,18.90
2018-06-12T18:02:06.383Z,19.70
2018-06-12T18:04:34.240Z,20.23
2018-06-12T18:07:02.025Z,18.83
2018-06-12T18:09:29.937Z,20.07
2018-06-12T18:11:57.612Z,18.87
2018-06-12T18:14:25.618Z,19.93
2018-06-12T18:16:53.556Z,20.20
2018-06-12T18:19:21.314Z,17.03
2018-06-12T18:21:49.080Z,18.30
2018-06-12T18:24:16.963Z,16.70
2018-06-12T18:26:44.768Z,20.13
2018-06-12T18:29:12.542Z,20.43
2018-06-12T18:31:40.330Z,15.33
2018-06-12T18:34:08.119Z,17.60
2018-06-12T18:36:35.899Z,17.70
2018-06-12T18:39:05.469Z,18.30
2018-06-12T18:41:33.261Z,21.17
2018-06-12T18:44:01.030Z,15.43
2018-06-12T18:46:28.814Z,16.77
2018-06-12T18:48:56.676Z,17.43
2018-06-12T18:51:24.862Z,17.40
2018-06-12T18:53:52.624Z,14.60
2018-06-12T18:56:20.373Z,24.10
2018-06-12T18:58:48.133Z,15.07
2018-06-12T19:01:15.897Z,14.87
2018-06-12T19:03:43.680Z,15.47
2018-06-12T19:06:11.472Z,15.60
2018-06-12T19:08:39.264Z,17.50
2018-06-12T19:11:07.048Z,16.03
2018-06-12T19:13:34.856Z,15.87
2018-06-12T19:16:02.641Z,15.93
2018-06-12T19:18:30.485Z,23.83
2018-06-12T19:20:58.225Z,20.33
2018-06-12T19:23:25.983Z,21.90
2018-06-12T19:25:53.854Z,14.97
2018-06-12T19:28:21.628Z,18.73
2018-06-12T19:30:49.891Z,17.27
2018-06-12T19:33:17.649Z,20.40
2018-06-12T19:35:45.495Z,18.23
2018-06-12T19:38:13.187Z,17.20
2018-06-12T19:40:41.264Z,16.33
2018-06-12T19:43:09.016Z,20.80
2018-06-12T19:45:36.777Z,20.60
2018-06-12T19:48:04.833Z,24.83
2018-06-12T19:50:32.559Z,16.30
2018-06-12T19:53:00.300Z,17.77
2018-06-12T19:55:28.040Z,16.90
2018-06-12T19:57:55.907Z,16.20
2018-06-12T20:00:23.759Z,15.97
2018-06-12T20:02:51.473Z,21.37
2018-06-12T20:05:19.251Z,23.70
2018-06-12T20:07:46.984Z,20.27
2018-06-12T20:10:14.771Z,16.70
2018-06-12T20:12:42.551Z,16.30
2018-06-12T20:15:10.307Z,19.20
2018-06-12T20:17:38.036Z,16.20
2018-06-12T20:20:05.944Z,17.87
2018-06-12T20:22:34.048Z,19.23
2018-06-12T20:25:01.883Z,17.67
2018-06-12T20:27:29.644Z,17.87
2018-06-12T20:29:57.560Z,16.83
2018-06-12T20:32:25.595Z,21.27
2018-06-12T20:34:53.996Z,18.23
2018-06-12T20:37:22.001Z,19.33
2018-06-12T20:39:50.355Z,17.67
2018-06-12T20:42:18.487Z,19.57
2018-06-12T20:44:46.328Z,18.37
2018-06-12T20:47:14.103Z,18.50
2018-06-12T20:49:41.916Z,19.13
2018-06-12T20:52:10.167Z,22.40
2018-06-12T20:54:38.024Z,17.27
2018-06-12T20:57:05.944Z,15.10
2018-06-12T20:59:34.072Z,15.60
2018-06-12T21:02:01.818Z,18.63
2018-06-12T21:04:30.102Z,18.13
2018-06-12T21:06:58.197Z,18.30
2018-06-12T21:09:25.955Z,18.80
2018-06-12T21:11:54.240Z,20.23
2018-06-12T21:14:22.039Z,26.97
2018-06-12T21:16:49.777Z,22.30
2018-06-12T21:19:17.808Z,20.57
2018-06-12T21:21:45.591Z,19.50
2018-06-12T21:24:13.844Z,15.87
2018-06-12T21:26:42.564Z,20.00
2018-06-12T21:29:10.358Z,20.53
2018-06-12T21:31:38.537Z,16.93
2018-06-12T21:34:06.844Z,16.03
2018-06-12T21:36:35.375Z,21.43
2018-06-12T21:39:04.216Z,18.77
2018-06-12T21:41:31.964Z,19.13
2018-06-12T21:44:00.095Z,17.63
2018-06-12T21:46:28.377Z,15.30
2018-06-12T21:48:56.161Z,19.90
2018-06-12T21:51:23.758Z,14.30
2018-06-12T21:53:51.967Z,17.20
2018-06-12T21:56:19.832Z,15.23
2018-06-12T21:58:48.131Z,20.23
2018-06-12T22:01:15.896Z,12.77
2018-06-12T22:03:43.805Z,15.90
2018-06-12T22:06:11.600Z,11.87
2018-06-12T22:08:39.792Z,14.60
2018-06-12T22:11:07.597Z,14.80
2018-06-12T22:13:35.376Z,12.67
2018-06-12T22:16:03.640Z,11.87
2018-06-12T22:18:31.413Z,12.37
2018-06-12T22:20:59.312Z,10.90
2018-06-12T22:23:27.176Z,11.53
2018-06-12T22:25:54.975Z,11.40
2018-06-12T22:28:22.712Z,13.50
2018-06-12T22:30:50.892Z,10.87
2018-06-12T22:33:18.667Z,11.80
2018-06-12T22:35:46.464Z,9.67
2018-06-12T22:38:14.251Z,9.97
2018-06-12T22:40:42.016Z,9.60
2018-06-12T22:43:09.788Z,11.63
2018-06-12T22:45:37.611Z,10.37
2018-06-12T22:48:05.812Z,9.10
2018-06-12T22:50:34.235Z,10.30
2018-06-12T22:53:01.983Z,8.90
2018-06-12T22:55:30.280Z,9.40
2018-06-12T22:57:58.045Z,9.20
2018-06-12T23:00:25.856Z,15.27
2018-06-12T23:02:53.704Z,8.60
2018-06-12T23:05:21.478Z,7.03
2018-06-12T23:07:49.254Z,13.10
2018-06-12T23:10:17.460Z,10.13
2018-06-12T23:12:45.198Z,10.43
2018-06-12T23:15:13.002Z,9.37
2018-06-12T23:17:40.869Z,9.20
2018-06-12T23:20:19.749Z,12.43
2018-06-12T23:22:47.567Z,14.23
2018-06-12T23:25:16.256Z,10.93
2018-06-12T23:27:44.558Z,8.40
2018-06-12T23:30:12.345Z,6.57
2018-06-12T23:32:40.007Z,6.70
2018-06-12T23:35:07.644Z,7.50
2018-06-12T23:37:36.177Z,12.33
2018-06-12T23:40:04.380Z,10.30
2018-06-12T23:42:32.420Z,6.13
2018-06-12T23:45:00.376Z,9.30
2018-06-12T23:47:28.183Z,8.67
2018-06-12T23:49:56.480Z,8.93
2018-06-12T23:52:24.654Z,6.00
2018-06-12T23:54:52.719Z,5.87
2018-06-12T23:57:20.536Z,7.50
2018-06-12T23:59:48.319Z,6.20
